createdAt,value
2017-08-04T03:22:53.992Z,18.23
2017-08-04T03:25:21.743Z,17.77
2017-08-04T03:27:49.695Z,17.07
2017-08-04T03:30:17.428Z,16.70
2017-08-04T03:32:45.264Z,15.50
2017-08-04T03:35:12.940Z,16.33
2017-08-04T03:37:40.569Z,16.10
2017-08-04T03:40:09.377Z,15.57
2017-08-04T03:42:37.017Z,16.70
2017-08-04T03:45:05.008Z,15.37
2017-08-04T03:47:33.056Z,15.90
2017-08-04T03:50:00.685Z,15.50
2017-08-04T03:52:28.342Z,16.20
2017-08-04T03:54:55.994Z,15.00
2017-08-04T03:57:23.654Z,16.60
2017-08-04T03:59:51.260Z,16.80
2017-08-04T04:02:18.922Z,16.77
2017-08-04T04:04:46.524Z,16.60
2017-08-04T04:07:14.485Z,15.10
2017-08-04T04:09:42.238Z,14.73
2017-08-04T04:12:09.908Z,15.93
2017-08-04T04:14:37.574Z,15.30
2017-08-04T04:17:05.200Z,14.63
2017-08-04T04:19:32.823Z,16.33
2017-08-04T04:22:00.455Z,15.33
2017-08-04T04:24:28.429Z,15.50
2017-08-04T04:26:56.099Z,16.23
2017-08-04T04:29:23.860Z,15.50
2017-08-04T04:31:51.503Z,16.33
2017-08-04T04:34:19.250Z,16.00
2017-08-04T04:36:47.208Z,16.67
2017-08-04T04:39:15.070Z,16.20
2017-08-04T04:41:43.387Z,16.70
2017-08-04T04:44:11.020Z,16.03
2017-08-04T04:46:38.644Z,15.73
2017-08-04T04:49:06.292Z,15.70
2017-08-04T04:51:33.946Z,15.23
2017-08-04T04:54:01.620Z,14.50
2017-08-04T04:56:29.256Z,13.77
2017-08-04T04:58:56.921Z,13.50
2017-08-04T05:01:24.886Z,13.30
2017-08-04T05:03:52.907Z,13.87
2017-08-04T05:06:21.854Z,15.47
2017-08-04T05:08:49.474Z,13.53
2017-08-04T05:11:18.201Z,13.30
2017-08-04T05:13:45.864Z,13.90
2017-08-04T05:16:13.496Z,14.17
2017-08-04T05:18:41.461Z,13.60
2017-08-04T05:21:09.200Z,13.93
2017-08-04T05:23:36.828Z,14.73
2017-08-04T05:26:04.632Z,13.50
2017-08-04T05:28:32.258Z,14.23
2017-08-04T05:31:00.198Z,12.93
2017-08-04T05:33:27.873Z,13.30
2017-08-04T05:35:55.486Z,14.77
2017-08-04T05:38:23.238Z,12.57
2017-08-04T05:40:50.866Z,12.67
2017-08-04T05:43:18.537Z,12.17
2017-08-04T05:45:46.178Z,13.10
2017-08-04T05:48:13.863Z,12.53
2017-08-04T05:50:41.534Z,12.43
2017-08-04T05:53:09.191Z,12.70
2017-08-04T05:55:36.838Z,11.60
2017-08-04T05:58:04.924Z,10.90
2017-08-04T06:00:32.540Z,11.30
2017-08-04T06:03:00.146Z,12.23
2017-08-04T06:05:27.874Z,11.53
2017-08-04T06:07:55.611Z,10.47
2017-08-04T06:10:23.264Z,10.60
2017-08-04T06:12:50.885Z,12.40
2017-08-04T06:15:18.653Z,11.30
2017-08-04T06:17:46.293Z,10.67
2017-08-04T06:20:14.290Z,9.93
2017-08-04T06:22:41.920Z,9.83
2017-08-04T06:25:09.574Z,9.57
2017-08-04T06:27:37.400Z,8.97
2017-08-04T06:30:05.055Z,9.30
2017-08-04T06:32:32.706Z,9.10
2017-08-04T06:35:00.428Z,9.10
2017-08-04T06:37:28.430Z,8.67
2017-08-04T06:39:56.063Z,8.23
2017-08-04T06:42:24.235Z,8.20
2017-08-04T06:44:51.957Z,8.63
2017-08-04T06:47:19.601Z,8.37
2017-08-04T06:49:59.090Z,8.63
2017-08-04T06:52:38.508Z,8.60
2017-08-04T06:55:17.981Z,9.20
2017-08-04T06:57:45.592Z,8.67
2017-08-04T07:00:13.232Z,9.47
2017-08-04T07:02:40.857Z,9.30
2017-08-04T07:05:08.794Z,8.67
2017-08-04T07:07:36.420Z,9.30
2017-08-04T07:10:04.042Z,8.40
2017-08-04T07:12:31.708Z,9.80
2017-08-04T07:14:59.328Z,9.33
2017-08-04T07:17:26.956Z,9.23
2017-08-04T07:19:54.621Z,8.83
2017-08-04T07:22:22.596Z,7.97
2017-08-04T07:24:50.229Z,8.53
2017-08-04T07:27:17.956Z,8.30
2017-08-04T07:29:45.592Z,8.20
2017-08-04T07:32:13.207Z,8.37
2017-08-04T07:34:40.889Z,8.23
2017-08-04T07:37:08.496Z,8.67
2017-08-04T07:39:36.175Z,8.13
2017-08-04T07:42:03.792Z,8.43
2017-08-04T07:44:31.727Z,7.83
2017-08-04T07:46:59.364Z,8.50
2017-08-04T07:49:26.998Z,8.30
2017-08-04T07:51:54.666Z,9.40
2017-08-04T07:54:22.344Z,8.20
2017-08-04T07:56:50.031Z,8.90
2017-08-04T07:59:17.713Z,8.60
2017-08-04T08:01:45.365Z,8.50
2017-08-04T08:04:12.983Z,9.80
2017-08-04T08:06:40.652Z,10.00
2017-08-04T08:09:08.694Z,11.33
2017-08-04T08:11:36.718Z,10.77
2017-08-04T08:14:04.460Z,10.50
2017-08-04T08:16:32.090Z,10.83
2017-08-04T08:18:59.743Z,10.70
2017-08-04T08:21:27.450Z,11.60
2017-08-04T08:23:55.125Z,11.63
2017-08-04T08:26:22.733Z,12.23
2017-08-04T08:28:50.703Z,11.70
2017-08-04T08:31:18.326Z,11.00
2017-08-04T08:33:45.954Z,10.37
2017-08-04T08:36:13.622Z,9.43
2017-08-04T08:38:41.299Z,11.63
2017-08-04T08:41:09.080Z,10.30
2017-08-04T08:43:36.703Z,11.30
2017-08-04T08:46:04.363Z,12.20
2017-08-04T08:48:31.980Z,13.73
2017-08-04T08:51:00.077Z,12.40
2017-08-04T08:53:27.726Z,12.90
2017-08-04T08:55:55.347Z,10.23
2017-08-04T08:58:22.993Z,10.10
2017-08-04T09:00:50.612Z,9.30
2017-08-04T09:03:18.466Z,11.40
2017-08-04T09:05:46.100Z,10.20
2017-08-04T09:08:13.749Z,9.53
2017-08-04T09:10:41.373Z,8.87
2017-08-04T09:13:09.367Z,8.07
2017-08-04T09:15:36.980Z,8.27
2017-08-04T09:18:04.612Z,8.30
2017-08-04T09:20:32.283Z,7.40
2017-08-04T09:22:59.930Z,6.83
2017-08-04T09:25:27.904Z,7.23
2017-08-04T09:27:55.564Z,6.73
2017-08-04T09:30:23.212Z,6.20
2017-08-04T09:32:50.841Z,6.57
2017-08-04T09:35:18.586Z,6.93
2017-08-04T09:37:46.252Z,6.23
2017-08-04T09:40:13.941Z,6.40
2017-08-04T09:42:41.580Z,6.50
2017-08-04T09:45:09.301Z,6.73
2017-08-04T09:47:37.371Z,6.60
2017-08-04T09:50:04.992Z,6.40
2017-08-04T09:52:32.625Z,6.03
2017-08-04T09:55:00.258Z,6.00
2017-08-04T09:57:28.059Z,6.43
2017-08-04T09:59:55.709Z,6.00
2017-08-04T10:02:23.445Z,6.10
2017-08-04T10:04:51.397Z,5.57
2017-08-04T10:07:19.049Z,6.10
2017-08-04T10:09:46.663Z,6.43
2017-08-04T10:12:14.314Z,6.13
2017-08-04T10:14:41.960Z,5.80
2017-08-04T10:17:09.633Z,5.20
2017-08-04T10:19:37.301Z,5.37
2017-08-04T10:22:05.071Z,6.27
2017-08-04T10:24:32.817Z,5.13
2017-08-04T10:27:00.819Z,5.10
2017-08-04T10:29:28.553Z,5.43
2017-08-04T10:31:56.209Z,5.03
2017-08-04T10:34:23.843Z,5.37
2017-08-04T10:36:51.479Z,5.53
2017-08-04T10:39:19.261Z,5.90
2017-08-04T10:41:46.872Z,4.97
2017-08-04T10:44:14.819Z,5.43
2017-08-04T10:46:42.431Z,4.70
2017-08-04T10:49:10.064Z,5.20
2017-08-04T10:51:37.852Z,4.40
2017-08-04T10:54:05.458Z,5.07
2017-08-04T10:56:33.087Z,4.80
2017-08-04T10:59:00.704Z,4.77
2017-08-04T11:01:28.649Z,4.60
2017-08-04T11:03:56.696Z,4.50
2017-08-04T11:06:24.404Z,3.93
2017-08-04T11:08:52.047Z,4.60
2017-08-04T11:11:19.777Z,4.63
2017-08-04T11:13:47.422Z,4.00
2017-08-04T11:16:15.028Z,4.37
2017-08-04T11:18:42.956Z,4.23
2017-08-04T11:21:10.645Z,3.97
2017-08-04T11:23:38.468Z,4.27
2017-08-04T11:26:06.081Z,4.90
2017-08-04T11:28:33.717Z,4.60
2017-08-04T11:31:01.355Z,4.10
2017-08-04T11:33:28.980Z,4.50
2017-08-04T11:35:56.981Z,4.60
2017-08-04T11:38:25.279Z,4.50
2017-08-04T11:40:52.910Z,4.57
2017-08-04T11:43:20.555Z,4.60
2017-08-04T11:45:48.168Z,5.27
2017-08-04T11:48:15.798Z,4.53
2017-08-04T11:50:43.412Z,4.10
2017-08-04T11:53:12.427Z,7.07
2017-08-04T11:55:40.085Z,4.77
2017-08-04T11:58:07.706Z,5.27
2017-08-04T12:00:35.446Z,4.50
2017-08-04T12:03:03.111Z,5.50
2017-08-04T12:05:30.751Z,4.97
2017-08-04T12:07:58.371Z,5.83
2017-08-04T12:10:26.359Z,5.30
2017-08-04T12:12:54.097Z,5.43
2017-08-04T12:15:21.926Z,5.67
2017-08-04T12:17:49.581Z,5.60
2017-08-04T12:20:17.181Z,5.60
2017-08-04T12:22:44.912Z,5.30
2017-08-04T12:25:13.756Z,5.30
2017-08-04T12:27:41.743Z,5.90
2017-08-04T12:30:09.353Z,5.80
2017-08-04T12:32:36.988Z,5.30
2017-08-04T12:35:04.638Z,5.40
2017-08-04T12:37:32.258Z,5.67
2017-08-04T12:40:00.017Z,5.50
2017-08-04T12:42:27.749Z,5.67
2017-08-04T12:44:55.413Z,5.23
2017-08-04T12:47:23.032Z,6.10
2017-08-04T12:49:51.077Z,5.60
2017-08-04T12:52:18.755Z,5.00
2017-08-04T12:54:46.381Z,5.57
2017-08-04T12:57:14.042Z,5.40
2017-08-04T12:59:41.647Z,4.60
2017-08-04T13:02:09.254Z,4.20
2017-08-04T13:04:36.883Z,4.30
2017-08-04T13:07:04.538Z,5.03
2017-08-04T13:09:32.191Z,5.40
2017-08-04T13:12:00.184Z,5.50
2017-08-04T13:14:27.780Z,4.97
2017-08-04T13:16:55.859Z,4.50
2017-08-04T13:19:23.523Z,3.80
2017-08-04T13:21:51.137Z,4.60
2017-08-04T13:24:18.806Z,4.17
2017-08-04T13:26:46.426Z,4.10
2017-08-04T13:29:14.420Z,4.40
2017-08-04T13:31:42.044Z,3.87
2017-08-04T13:34:09.651Z,4.50
2017-08-04T13:36:37.291Z,3.73
2017-08-04T13:39:04.910Z,3.50
2017-08-04T13:41:32.556Z,3.80
2017-08-04T13:44:00.169Z,3.23
2017-08-04T13:46:27.918Z,3.30
2017-08-04T13:48:55.541Z,3.60
2017-08-04T13:51:23.536Z,3.70
2017-08-04T13:53:51.284Z,3.50
2017-08-04T13:56:18.903Z,3.77
2017-08-04T13:58:46.533Z,4.40
2017-08-04T14:01:14.202Z,3.77
2017-08-04T14:03:41.833Z,3.50
2017-08-04T14:06:09.519Z,4.10
2017-08-04T14:08:37.496Z,4.33
2017-08-04T14:11:05.121Z,4.20
2017-08-04T14:13:32.738Z,3.60
2017-08-04T14:16:00.382Z,4.57
2017-08-04T14:18:28.008Z,4.40
2017-08-04T14:20:55.666Z,2.97
2017-08-04T14:23:23.280Z,4.30
2017-08-04T14:25:51.273Z,4.00
2017-08-04T14:28:18.868Z,3.90
2017-08-04T14:30:46.520Z,3.90
2017-08-04T14:33:14.179Z,4.07
2017-08-04T14:35:41.942Z,3.60
2017-08-04T14:38:09.576Z,3.40
2017-08-04T14:40:37.177Z,3.70
2017-08-04T14:43:04.940Z,3.07
2017-08-04T14:45:32.658Z,3.03
2017-08-04T14:48:00.651Z,3.30
2017-08-04T14:50:28.282Z,3.40
2017-08-04T14:52:55.991Z,3.00
2017-08-04T14:55:23.635Z,3.60
2017-08-04T14:57:51.242Z,3.13
2017-08-04T15:00:18.878Z,3.30
2017-08-04T15:02:46.805Z,2.80
2017-08-04T15:05:14.806Z,3.63
2017-08-04T15:07:42.522Z,3.43
2017-08-04T15:10:10.242Z,3.13
2017-08-04T15:12:37.941Z,3.30
2017-08-04T15:15:05.560Z,2.93
2017-08-04T15:17:33.201Z,3.03
2017-08-04T15:20:00.820Z,3.83
2017-08-04T15:22:28.841Z,3.03
2017-08-04T15:24:56.457Z,3.00
2017-08-04T15:27:24.328Z,3.33
2017-08-04T15:29:51.961Z,3.70
2017-08-04T15:32:19.575Z,3.23
2017-08-04T15:34:47.211Z,3.40
2017-08-04T15:37:15.032Z,3.10
2017-08-04T15:39:42.983Z,2.97
2017-08-04T15:42:10.615Z,3.50
2017-08-04T15:44:38.250Z,3.43
2017-08-04T15:47:05.891Z,3.23
2017-08-04T15:49:33.519Z,3.90
2017-08-04T15:52:01.185Z,3.83
2017-08-04T15:54:28.798Z,3.30
2017-08-04T15:56:56.814Z,3.30
2017-08-04T15:59:24.421Z,3.50
2017-08-04T16:01:52.055Z,4.00
2017-08-04T16:04:19.717Z,4.53
2017-08-04T16:06:47.577Z,4.40
2017-08-04T16:09:15.278Z,4.67
2017-08-04T16:11:42.884Z,4.40
2017-08-04T16:14:10.522Z,4.80
2017-08-04T16:16:38.138Z,4.80
2017-08-04T16:19:06.208Z,5.00
2017-08-04T16:21:35.325Z,3.60
2017-08-04T16:24:02.965Z,3.80
2017-08-04T16:26:30.643Z,3.70
2017-08-04T16:28:58.261Z,3.70
2017-08-04T16:31:26.167Z,4.17
2017-08-04T16:33:53.773Z,4.10
2017-08-04T16:36:21.387Z,4.37
2017-08-04T16:38:49.031Z,3.73
2017-08-04T16:41:16.654Z,3.10
2017-08-04T16:43:44.294Z,3.83
2017-08-04T16:46:11.903Z,3.23
2017-08-04T16:48:39.594Z,3.33
2017-08-04T16:51:07.215Z,4.43
2017-08-04T16:53:35.215Z,3.60
2017-08-04T16:56:03.556Z,3.87
2017-08-04T16:58:31.183Z,3.67
2017-08-04T17:00:58.828Z,4.00
2017-08-04T17:03:26.435Z,3.67
2017-08-04T17:05:55.407Z,3.53
2017-08-04T17:08:23.033Z,3.67
2017-08-04T17:10:51.426Z,3.60
2017-08-04T17:13:19.190Z,3.50
2017-08-04T17:15:46.826Z,3.90
2017-08-04T17:18:14.454Z,3.70
2017-08-04T17:20:42.077Z,3.73
2017-08-04T17:23:09.766Z,3.77
2017-08-04T17:25:37.412Z,3.87
2017-08-04T17:28:05.327Z,3.33
2017-08-04T17:30:32.939Z,3.40
2017-08-04T17:33:00.585Z,2.63
2017-08-04T17:35:28.235Z,3.20
2017-08-04T17:37:55.947Z,3.40
2017-08-04T17:40:23.628Z,3.17
2017-08-04T17:42:51.364Z,3.10
2017-08-04T17:45:19.283Z,3.30
2017-08-04T17:47:46.912Z,3.00
2017-08-04T17:50:14.541Z,3.20
2017-08-04T17:52:42.243Z,3.10
2017-08-04T17:55:09.855Z,3.17
2017-08-04T17:57:37.488Z,3.10
2017-08-04T18:00:05.112Z,3.80
2017-08-04T18:02:45.112Z,3.73
2017-08-04T18:05:12.713Z,2.90
2017-08-04T18:07:40.363Z,3.33
2017-08-04T18:10:08.126Z,3.17
2017-08-04T18:12:35.749Z,2.90
2017-08-04T18:15:03.396Z,3.00
2017-08-04T18:17:31.026Z,2.93
2017-08-04T18:19:59.155Z,3.30
2017-08-04T18:22:26.780Z,3.07
2017-08-04T18:24:56.196Z,3.43
2017-08-04T18:27:23.839Z,3.10
2017-08-04T18:29:51.460Z,2.87
2017-08-04T18:32:19.115Z,3.10
2017-08-04T18:34:46.772Z,3.87
2017-08-04T18:37:14.506Z,3.30
2017-08-04T18:39:42.119Z,3.03
2017-08-04T18:42:09.777Z,2.97
2017-08-04T18:44:37.415Z,2.73
2017-08-04T18:47:05.389Z,2.67
2017-08-04T18:49:33.013Z,3.27
2017-08-04T18:52:00.655Z,2.93
2017-08-04T18:54:28.402Z,2.80
2017-08-04T18:56:56.052Z,3.33
2017-08-04T18:59:24.077Z,2.67
2017-08-04T19:01:51.672Z,2.10
2017-08-04T19:04:19.299Z,2.30
2017-08-04T19:06:46.929Z,2.40
2017-08-04T19:09:14.567Z,2.70
2017-08-04T19:11:42.301Z,2.33
2017-08-04T19:14:09.999Z,2.40
2017-08-04T19:16:37.749Z,2.90
2017-08-04T19:19:05.376Z,2.20
2017-08-04T19:21:33.381Z,2.73
2017-08-04T19:24:01.271Z,2.60
2017-08-04T19:26:28.877Z,2.40
2017-08-04T19:28:56.566Z,43.70
2017-08-04T19:31:24.294Z,2.13
2017-08-04T19:33:51.972Z,2.10
2017-08-04T19:36:19.600Z,2.10
2017-08-04T19:38:47.455Z,2.00
2017-08-04T19:41:15.680Z,2.13
2017-08-04T19:43:43.403Z,2.13
2017-08-04T19:46:11.203Z,2.67
2017-08-04T19:48:38.832Z,2.03
2017-08-04T19:51:06.498Z,2.10
2017-08-04T19:53:34.118Z,1.77
2017-08-04T19:56:02.162Z,2.03
2017-08-04T19:58:29.876Z,2.20
2017-08-04T20:00:57.636Z,2.00
2017-08-04T20:03:25.284Z,1.90
2017-08-04T20:05:52.903Z,2.03
2017-08-04T20:08:20.577Z,2.10
2017-08-04T20:10:48.194Z,1.87
2017-08-04T20:13:16.184Z,2.13
2017-08-04T20:15:44.968Z,2.20
2017-08-04T20:18:12.577Z,2.77
2017-08-04T20:20:40.220Z,2.17
2017-08-04T20:23:07.859Z,2.47
2017-08-04T20:25:35.516Z,1.90
2017-08-04T20:28:04.495Z,2.20
2017-08-04T20:30:32.427Z,2.13
2017-08-04T20:33:00.068Z,2.30
2017-08-04T20:35:27.690Z,2.43
2017-08-04T20:37:55.777Z,1.87
2017-08-04T20:40:23.407Z,1.83
2017-08-04T20:42:51.116Z,2.30
2017-08-04T20:45:18.733Z,2.17
2017-08-04T20:47:46.517Z,3.03
2017-08-04T20:50:14.160Z,2.20
2017-08-04T20:52:41.816Z,2.00
2017-08-04T20:55:09.478Z,2.00
2017-08-04T20:57:37.417Z,2.30
2017-08-04T21:00:05.217Z,2.23
2017-08-04T21:02:32.969Z,2.13
2017-08-04T21:05:00.595Z,2.40
2017-08-04T21:07:28.207Z,2.03
2017-08-04T21:09:55.856Z,1.70
2017-08-04T21:12:23.490Z,2.10
2017-08-04T21:14:51.596Z,2.23
2017-08-04T21:17:19.306Z,2.30
2017-08-04T21:19:46.923Z,1.90
2017-08-04T21:22:14.941Z,2.30
2017-08-04T21:24:42.556Z,2.10
2017-08-04T21:27:10.258Z,2.20
2017-08-04T21:29:37.986Z,2.33
2017-08-04T21:32:05.634Z,2.00
2017-08-04T21:34:33.245Z,2.63
2017-08-04T21:37:00.894Z,2.10
2017-08-04T21:39:28.532Z,2.30
2017-08-04T21:41:56.169Z,2.03
2017-08-04T21:44:23.769Z,2.40
2017-08-04T21:46:51.468Z,2.77
2017-08-04T21:49:19.088Z,2.30
2017-08-04T21:51:46.725Z,2.13
2017-08-04T21:54:14.381Z,2.30
2017-08-04T21:56:42.024Z,2.20
2017-08-04T21:59:09.620Z,2.70
2017-08-04T22:01:37.240Z,2.60
2017-08-04T22:04:04.881Z,2.97
2017-08-04T22:06:32.491Z,2.37
2017-08-04T22:09:00.120Z,2.80
2017-08-04T22:11:27.755Z,2.23
2017-08-04T22:13:55.374Z,2.50
2017-08-04T22:16:23.016Z,2.60
2017-08-04T22:18:50.623Z,2.50
2017-08-04T22:21:18.327Z,2.33
2017-08-04T22:23:45.933Z,2.60
2017-08-04T22:26:13.561Z,2.40
2017-08-04T22:28:41.165Z,2.50
2017-08-04T22:31:08.787Z,2.60
2017-08-04T22:33:36.397Z,1.90
2017-08-04T22:36:04.297Z,2.20
2017-08-04T22:38:31.888Z,2.20
2017-08-04T22:40:59.949Z,2.10
2017-08-04T22:43:27.605Z,2.30
2017-08-04T22:45:55.234Z,2.20
2017-08-04T22:48:22.990Z,2.60
2017-08-04T22:50:50.618Z,2.33
2017-08-04T22:53:18.237Z,2.40
2017-08-04T22:55:46.244Z,2.73
2017-08-04T22:58:13.874Z,2.53
2017-08-04T23:00:41.512Z,2.40
2017-08-04T23:03:09.129Z,2.83
2017-08-04T23:05:36.727Z,2.53
2017-08-04T23:08:04.393Z,2.30
2017-08-04T23:10:32.001Z,2.50
2017-08-04T23:12:59.662Z,2.70
2017-08-04T23:15:27.264Z,3.17
2017-08-04T23:17:54.928Z,2.63
2017-08-04T23:20:22.534Z,2.53
2017-08-04T23:22:50.274Z,2.37
2017-08-04T23:25:17.890Z,3.00
2017-08-04T23:27:45.524Z,2.40
2017-08-04T23:30:13.257Z,2.93
2017-08-04T23:32:40.904Z,2.67
2017-08-04T23:35:08.514Z,2.70
2017-08-04T23:37:36.222Z,2.53
2017-08-04T23:40:03.896Z,2.50
2017-08-04T23:42:31.607Z,2.40
2017-08-04T23:44:59.214Z,2.87
2017-08-04T23:47:26.959Z,2.57
2017-08-04T23:49:54.576Z,2.60
2017-08-04T23:52:22.219Z,2.70
2017-08-04T23:54:49.841Z,2.40
2017-08-04T23:57:17.606Z,2.90
2017-08-04T23:59:45.210Z,2.80
